sensor_id;sensor_type;location;lat;lon;timestamp;pressure;altitude;pressure_sealevel;temperature;humidity
40992;BME280;29633;49.168;9.848;2023-05-24T00:02:08;97172.34;;;18.92;59.44
40992;BME280;29633;49.168;9.848;2023-05-24T00:04:38;97174.16;;;18.91;59.50
40992;BME280;29633;49.168;9.848;2023-05-24T00:07:04;97178.41;;;18.92;59.30
40992;BME280;29633;49.168;9.848;2023-05-24T00:09:31;97172.66;;;18.89;59.35
40992;BME280;29633;49.168;9.848;2023-05-24T00:11:57;97171.03;;;18.88;59.29
40992;BME280;29633;49.168;9.848;2023-05-24T00:14:23;97167.56;;;18.87;59.37
40992;BME280;29633;49.168;9.848;2023-05-24T00:16:49;97157.41;;;18.84;59.28
40992;BME280;29633;49.168;9.848;2023-05-24T00:19:14;97154.09;;;18.82;59.67
40992;BME280;29633;49.168;9.848;2023-05-24T00:21:44;97147.38;;;18.80;59.62
40992;BME280;29633;49.168;9.848;2023-05-24T00:24:10;97152.16;;;18.76;59.48
40992;BME280;29633;49.168;9.848;2023-05-24T00:26:36;97144.75;;;18.72;59.17
40992;BME280;29633;49.168;9.848;2023-05-24T00:29:02;97141.78;;;18.66;59.35
40992;BME280;29633;49.168;9.848;2023-05-24T00:31:27;97131.63;;;18.63;59.34
40992;BME280;29633;49.168;9.848;2023-05-24T00:33:53;97131.31;;;18.58;59.79
40992;BME280;29633;49.168;9.848;2023-05-24T00:36:19;97130.00;;;18.54;59.59
40992;BME280;29633;49.168;9.848;2023-05-24T00:38:44;97121.63;;;18.51;59.21
40992;BME280;29633;49.168;9.848;2023-05-24T00:41:10;97119.28;;;18.48;59.22
40992;BME280;29633;49.168;9.848;2023-05-24T00:43:36;97121.44;;;18.44;59.29
40992;BME280;29633;49.168;9.848;2023-05-24T00:46:20;97119.09;;;18.41;59.27
40992;BME280;29633;49.168;9.848;2023-05-24T00:48:48;97116.50;;;18.33;59.50
40992;BME280;29633;49.168;9.848;2023-05-24T00:51:15;97111.72;;;18.29;59.31
40992;BME280;29633;49.168;9.848;2023-05-24T00:53:42;97104.34;;;18.24;59.65
40992;BME280;29633;49.168;9.848;2023-05-24T00:56:08;97108.25;;;18.20;59.45
40992;BME280;29633;49.168;9.848;2023-05-24T00:58:35;97102.69;;;18.15;59.48
40992;BME280;29633;49.168;9.848;2023-05-24T01:01:01;97103.19;;;18.10;59.57
40992;BME280;29633;49.168;9.848;2023-05-24T01:03:28;97115.47;;;18.10;59.57
40992;BME280;29633;49.168;9.848;2023-05-24T01:05:57;97124.81;;;18.04;59.78
40992;BME280;29633;49.168;9.848;2023-05-24T01:11:25;97124.13;;;17.94;59.69
40992;BME280;29633;49.168;9.848;2023-05-24T01:25:01;97119.28;;;17.57;60.40
40992;BME280;29633;49.168;9.848;2023-05-24T01:27:28;97120.09;;;17.58;60.30
40992;BME280;29633;49.168;9.848;2023-05-24T01:29:54;97117.47;;;17.58;60.32
40992;BME280;29633;49.168;9.848;2023-05-24T01:32:20;97120.88;;;17.58;60.30
40992;BME280;29633;49.168;9.848;2023-05-24T01:34:46;97112.38;;;17.56;60.10
40992;BME280;29633;49.168;9.848;2023-05-24T01:37:12;97116.09;;;17.54;60.26
40992;BME280;29633;49.168;9.848;2023-05-24T01:39:38;97104.44;;;17.48;60.29
40992;BME280;29633;49.168;9.848;2023-05-24T01:49:53;97123.75;;;17.39;60.32
40992;BME280;29633;49.168;9.848;2023-05-24T01:52:21;97126.50;;;17.38;60.21
40992;BME280;29633;49.168;9.848;2023-05-24T01:54:52;97129.94;;;17.38;60.40
40992;BME280;29633;49.168;9.848;2023-05-24T01:57:21;97128.94;;;17.31;60.46
40992;BME280;29633;49.168;9.848;2023-05-24T01:59:47;97130.88;;;17.29;60.59
40992;BME280;29633;49.168;9.848;2023-05-24T02:02:13;97131.69;;;17.30;60.37
40992;BME280;29633;49.168;9.848;2023-05-24T02:04:39;97131.38;;;17.25;60.51
40992;BME280;29633;49.168;9.848;2023-05-24T02:07:05;97124.47;;;17.23;60.38
40992;BME280;29633;49.168;9.848;2023-05-24T02:09:31;97138.72;;;17.21;60.47
40992;BME280;29633;49.168;9.848;2023-05-24T02:11:56;97127.56;;;17.19;60.57
40992;BME280;29633;49.168;9.848;2023-05-24T02:14:22;97133.09;;;17.16;60.55
40992;BME280;29633;49.168;9.848;2023-05-24T02:16:51;97132.97;;;17.17;60.62
40992;BME280;29633;49.168;9.848;2023-05-24T02:19:16;97124.94;;;17.19;60.65
40992;BME280;29633;49.168;9.848;2023-05-24T02:21:42;97128.69;;;17.16;60.60
40992;BME280;29633;49.168;9.848;2023-05-24T02:24:08;97123.44;;;17.16;60.62
40992;BME280;29633;49.168;9.848;2023-05-24T02:26:37;97132.28;;;17.15;60.67
40992;BME280;29633;49.168;9.848;2023-05-24T02:29:03;97135.22;;;17.12;60.44
40992;BME280;29633;49.168;9.848;2023-05-24T02:31:31;97129.47;;;17.09;60.74
40992;BME280;29633;49.168;9.848;2023-05-24T02:33:57;97133.88;;;17.08;60.71
40992;BME280;29633;49.168;9.848;2023-05-24T02:36:22;97128.50;;;17.10;60.75
40992;BME280;29633;49.168;9.848;2023-05-24T02:38:49;97132.91;;;17.09;61.06
40992;BME280;29633;49.168;9.848;2023-05-24T02:41:15;97136.50;;;17.08;60.65
40992;BME280;29633;49.168;9.848;2023-05-24T02:43:46;97131.25;;;17.08;60.57
40992;BME280;29633;49.168;9.848;2023-05-24T02:46:12;97127.16;;;17.06;60.68
40992;BME280;29633;49.168;9.848;2023-05-24T02:48:41;97133.88;;;17.08;60.71
40992;BME280;29633;49.168;9.848;2023-05-24T02:51:06;97132.09;;;17.09;60.75
40992;BME280;29633;49.168;9.848;2023-05-24T02:53:32;97127.16;;;17.06;60.65
40992;BME280;29633;49.168;9.848;2023-05-24T02:55:58;97133.06;;;17.08;60.73
40992;BME280;29633;49.168;9.848;2023-05-24T02:58:26;97135.66;;;17.08;60.72
40992;BME280;29633;49.168;9.848;2023-05-24T03:00:53;97129.31;;;17.10;60.79
40992;BME280;29633;49.168;9.848;2023-05-24T03:03:19;97132.91;;;17.09;60.63
40992;BME280;29633;49.168;9.848;2023-05-24T03:05:45;97134.69;;;17.09;60.55
40992;BME280;29633;49.168;9.848;2023-05-24T03:08:10;97133.72;;;17.10;60.63
40992;BME280;29633;49.168;9.848;2023-05-24T03:10:38;97138.16;;;17.09;60.62
40992;BME280;29633;49.168;9.848;2023-05-24T03:13:04;97133.72;;;17.10;60.62
40992;BME280;29633;49.168;9.848;2023-05-24T03:15:30;97134.69;;;17.09;60.53
40992;BME280;29633;49.168;9.848;2023-05-24T03:17:55;97135.66;;;17.08;60.78
40992;BME280;29633;49.168;9.848;2023-05-24T03:20:21;97139.28;;;17.07;60.74
40992;BME280;29633;49.168;9.848;2023-05-24T03:22:48;97139.94;;;17.09;60.68
40992;BME280;29633;49.168;9.848;2023-05-24T03:25:13;97132.75;;;17.11;60.56
40992;BME280;29633;49.168;9.848;2023-05-24T03:27:39;97132.75;;;17.11;60.56
40992;BME280;29633;49.168;9.848;2023-05-24T03:30:05;97128.50;;;17.10;60.45
40992;BME280;29633;49.168;9.848;2023-05-24T03:32:31;97131.94;;;17.10;60.40
40992;BME280;29633;49.168;9.848;2023-05-24T03:34:57;97125.19;;;17.08;60.55
40992;BME280;29633;49.168;9.848;2023-05-24T03:37:26;97129.47;;;17.09;60.53
40992;BME280;29633;49.168;9.848;2023-05-24T03:39:52;97130.28;;;17.09;60.56
40992;BME280;29633;49.168;9.848;2023-05-24T03:45:00;97130.44;;;17.08;60.48
40992;BME280;29633;49.168;9.848;2023-05-24T03:47:25;97134.84;;;17.07;60.58
40992;BME280;29633;49.168;9.848;2023-05-24T03:49:51;97137.47;;;17.07;60.56
40992;BME280;29633;49.168;9.848;2023-05-24T03:52:19;97137.63;;;17.06;60.51
40992;BME280;29633;49.168;9.848;2023-05-24T03:54:45;97138.59;;;17.05;60.45
40992;BME280;29633;49.168;9.848;2023-05-24T03:57:10;97144.53;;;17.07;60.67
40992;BME280;29633;49.168;9.848;2023-05-24T03:59:36;97143.69;;;17.06;60.64
40992;BME280;29633;49.168;9.848;2023-05-24T04:02:01;97146.16;;;17.08;60.33
40992;BME280;29633;49.168;9.848;2023-05-24T04:04:27;97152.22;;;17.08;60.39
40992;BME280;29633;49.168;9.848;2023-05-24T04:06:53;97145.31;;;17.07;60.35
40992;BME280;29633;49.168;9.848;2023-05-24T04:09:21;97146.16;;;17.08;60.47
40992;BME280;29633;49.168;9.848;2023-05-24T04:11:47;97146.16;;;17.08;60.34
40992;BME280;29633;49.168;9.848;2023-05-24T04:14:12;97146.31;;;17.06;60.24
40992;BME280;29633;49.168;9.848;2023-05-24T04:16:38;97140.91;;;17.08;60.42
40992;BME280;29633;49.168;9.848;2023-05-24T04:19:06;97145.31;;;17.07;60.40
40992;BME280;29633;49.168;9.848;2023-05-24T04:21:33;97141.22;;;17.05;60.38
40992;BME280;29633;49.168;9.848;2023-05-24T04:23:59;97147.28;;;17.05;60.55
40992;BME280;29633;49.168;9.848;2023-05-24T04:26:26;97144.81;;;17.04;60.59
40992;BME280;29633;49.168;9.848;2023-05-24T04:28:52;97137.94;;;17.03;60.43
40992;BME280;29633;49.168;9.848;2023-05-24T04:31:18;97137.13;;;17.02;60.58
40992;BME280;29633;49.168;9.848;2023-05-24T04:33:44;97148.44;;;17.03;60.33
40992;BME280;29633;49.168;9.848;2023-05-24T04:36:10;97147.75;;;17.01;60.41
40992;BME280;29633;49.168;9.848;2023-05-24T04:38:36;97145.75;;;16.95;60.34
40992;BME280;29633;49.168;9.848;2023-05-24T04:41:03;97142.31;;;16.94;60.38
40992;BME280;29633;49.168;9.848;2023-05-24T04:43:32;97141.47;;;16.94;60.33
40992;BME280;29633;49.168;9.848;2023-05-24T04:45:59;97141.47;;;16.94;60.33
40992;BME280;29633;49.168;9.848;2023-05-24T04:48:24;97147.53;;;16.94;60.30
40992;BME280;29633;49.168;9.848;2023-05-24T04:50:50;97144.91;;;16.94;60.05
40992;BME280;29633;49.168;9.848;2023-05-24T04:53:17;97142.47;;;16.93;60.37
40992;BME280;29633;49.168;9.848;2023-05-24T04:55:43;97134.75;;;16.91;60.14
40992;BME280;29633;49.168;9.848;2023-05-24T04:58:11;97133.94;;;16.91;60.14
40992;BME280;29633;49.168;9.848;2023-05-24T05:00:37;97140.81;;;16.92;60.21
40992;BME280;29633;49.168;9.848;2023-05-24T05:03:03;97138.34;;;16.90;60.08
40992;BME280;29633;49.168;9.848;2023-05-24T05:05:28;97141.78;;;16.91;60.41
40992;BME280;29633;49.168;9.848;2023-05-24T05:07:54;97138.19;;;16.92;60.19
40992;BME280;29633;49.168;9.848;2023-05-24T05:10:19;97142.47;;;16.93;60.22
40992;BME280;29633;49.168;9.848;2023-05-24T05:12:45;97152.94;;;16.93;60.29
40992;BME280;29633;49.168;9.848;2023-05-24T05:15:11;97140.66;;;16.93;60.23
40992;BME280;29633;49.168;9.848;2023-05-24T05:17:37;97140.00;;;16.91;59.98
40992;BME280;29633;49.168;9.848;2023-05-24T05:20:03;97136.41;;;16.92;60.06
40992;BME280;29633;49.168;9.848;2023-05-24T05:22:30;97142.47;;;16.93;59.96
40992;BME280;29633;49.168;9.848;2023-05-24T05:24:56;97133.28;;;16.89;60.19
40992;BME280;29633;49.168;9.848;2023-05-24T05:27:21;97126.25;;;16.89;60.10
40992;BME280;29633;49.168;9.848;2023-05-24T05:29:47;97125.41;;;16.89;60.20
40992;BME280;29633;49.168;9.848;2023-05-24T05:32:12;97127.22;;;16.88;60.17
40992;BME280;29633;49.168;9.848;2023-05-24T05:34:38;97135.72;;;16.90;60.09
40992;BME280;29633;49.168;9.848;2023-05-24T05:37:04;97133.09;;;16.90;60.16
40992;BME280;29633;49.168;9.848;2023-05-24T05:39:29;97134.63;;;16.93;60.03
40992;BME280;29633;49.168;9.848;2023-05-24T05:41:56;97134.63;;;16.93;60.03
40992;BME280;29633;49.168;9.848;2023-05-24T05:44:22;97140.50;;;16.95;60.13
40992;BME280;29633;49.168;9.848;2023-05-24T05:46:47;97140.38;;;16.96;59.96
40992;BME280;29633;49.168;9.848;2023-05-24T05:49:14;97137.75;;;16.96;60.09
40992;BME280;29633;49.168;9.848;2023-05-24T05:51:40;97147.09;;;16.99;60.01
40992;BME280;29633;49.168;9.848;2023-05-24T05:54:07;97150.53;;;16.99;59.80
40992;BME280;29633;49.168;9.848;2023-05-24T05:56:39;97147.91;;;16.99;59.90
40992;BME280;29633;49.168;9.848;2023-05-24T05:59:13;97150.53;;;16.99;60.05
40992;BME280;29633;49.168;9.848;2023-05-24T06:01:40;97152.97;;;17.01;59.95
40992;BME280;29633;49.168;9.848;2023-05-24T06:04:06;97158.53;;;16.98;59.91
40992;BME280;29633;49.168;9.848;2023-05-24T06:06:32;97160.19;;;16.99;59.89
40992;BME280;29633;49.168;9.848;2023-05-24T06:09:01;97157.56;;;16.99;59.98
40992;BME280;29633;49.168;9.848;2023-05-24T06:11:26;97157.56;;;16.99;59.82
40992;BME280;29633;49.168;9.848;2023-05-24T06:13:52;97161.97;;;16.98;59.91
40992;BME280;29633;49.168;9.848;2023-05-24T06:16:18;97163.75;;;16.98;59.99
40992;BME280;29633;49.168;9.848;2023-05-24T06:18:48;97159.66;;;16.95;60.16
40992;BME280;29633;49.168;9.848;2023-05-24T06:21:14;97164.06;;;16.95;60.25
40992;BME280;29633;49.168;9.848;2023-05-24T06:23:40;97163.13;;;16.96;59.93
40992;BME280;29633;49.168;9.848;2023-05-24T06:26:05;97167.34;;;16.97;60.05
40992;BME280;29633;49.168;9.848;2023-05-24T06:28:34;97163.13;;;16.96;59.76
40992;BME280;29633;49.168;9.848;2023-05-24T06:31:02;97168.50;;;16.94;60.02
40992;BME280;29633;49.168;9.848;2023-05-24T06:33:28;97169.44;;;16.93;60.12
40992;BME280;29633;49.168;9.848;2023-05-24T06:35:54;97173.53;;;16.88;60.11
40992;BME280;29633;49.168;9.848;2023-05-24T06:38:19;97177.63;;;16.90;60.04
40992;BME280;29633;49.168;9.848;2023-05-24T06:40:45;97177.47;;;16.92;60.09
40992;BME280;29633;49.168;9.848;2023-05-24T06:43:11;97179.13;;;16.93;60.12
40992;BME280;29633;49.168;9.848;2023-05-24T06:45:37;97182.72;;;16.92;59.98
40992;BME280;29633;49.168;9.848;2023-05-24T06:48:02;97180.09;;;16.92;59.96
40992;BME280;29633;49.168;9.848;2023-05-24T06:50:28;97181.06;;;16.91;60.25
40992;BME280;29633;49.168;9.848;2023-05-24T06:52:54;97185.16;;;16.93;59.92
40992;BME280;29633;49.168;9.848;2023-05-24T06:55:19;97186.69;;;16.96;60.08
40992;BME280;29633;49.168;9.848;2023-05-24T06:57:45;97190.78;;;16.98;59.95
40992;BME280;29633;49.168;9.848;2023-05-24T07:00:11;97198.50;;;17.00;59.94
40992;BME280;29633;49.168;9.848;2023-05-24T07:02:38;97193.91;;;17.02;59.76
40992;BME280;29633;49.168;9.848;2023-05-24T07:05:04;97195.56;;;17.03;59.96
40992;BME280;29633;49.168;9.848;2023-05-24T07:07:30;97203.25;;;17.04;59.93
40992;BME280;29633;49.168;9.848;2023-05-24T07:09:56;97194.28;;;17.07;59.87
40992;BME280;29633;49.168;9.848;2023-05-24T07:12:22;97208.81;;;17.01;59.92
40992;BME280;29633;49.168;9.848;2023-05-24T07:14:48;97204.41;;;17.02;60.14
40992;BME280;29633;49.168;9.848;2023-05-24T07:17:13;97207.00;;;17.02;60.10
40992;BME280;29633;49.168;9.848;2023-05-24T07:19:39;97209.50;;;17.03;59.88
40992;BME280;29633;49.168;9.848;2023-05-24T07:22:06;97216.53;;;17.03;60.03
40992;BME280;29633;49.168;9.848;2023-05-24T07:24:31;97219.16;;;17.03;59.88
40992;BME280;29633;49.168;9.848;2023-05-24T07:26:57;97221.59;;;17.04;60.08
40992;BME280;29633;49.168;9.848;2023-05-24T07:29:23;97220.78;;;17.04;60.04
40992;BME280;29633;49.168;9.848;2023-05-24T07:31:49;97232.91;;;17.05;60.16
40992;BME280;29633;49.168;9.848;2023-05-24T07:34:14;97221.47;;;17.06;59.97
40992;BME280;29633;49.168;9.848;2023-05-24T07:36:40;97229.00;;;17.09;60.06
40992;BME280;29633;49.168;9.848;2023-05-24T07:39:06;97226.06;;;17.12;59.94
40992;BME280;29633;49.168;9.848;2023-05-24T07:41:35;97220.84;;;17.12;60.01
40992;BME280;29633;49.168;9.848;2023-05-24T07:44:01;97233.78;;;17.13;60.09
40992;BME280;29633;49.168;9.848;2023-05-24T07:46:26;97226.59;;;17.15;59.91
40992;BME280;29633;49.168;9.848;2023-05-24T07:48:52;97228.75;;;17.20;59.91
40992;BME280;29633;49.168;9.848;2023-05-24T07:51:18;97228.44;;;17.23;60.04
40992;BME280;29633;49.168;9.848;2023-05-24T07:53:43;97231.59;;;17.27;59.77
40992;BME280;29633;49.168;9.848;2023-05-24T07:56:09;97229.47;;;17.30;60.11
40992;BME280;29633;49.168;9.848;2023-05-24T07:58:34;97227.53;;;17.32;59.73
40992;BME280;29633;49.168;9.848;2023-05-24T08:01:00;97234.41;;;17.33;59.72
40992;BME280;29633;49.168;9.848;2023-05-24T08:03:26;97228.88;;;17.36;59.85
40992;BME280;29633;49.168;9.848;2023-05-24T08:05:52;97231.50;;;17.36;59.93
40992;BME280;29633;49.168;9.848;2023-05-24T08:08:18;97234.13;;;17.36;59.89
40992;BME280;29633;49.168;9.848;2023-05-24T08:10:44;97226.91;;;17.38;59.85
40992;BME280;29633;49.168;9.848;2023-05-24T08:13:10;97243.31;;;17.40;59.65
40992;BME280;29633;49.168;9.848;2023-05-24T08:15:36;97237.91;;;17.42;59.77
40992;BME280;29633;49.168;9.848;2023-05-24T08:18:01;97233.34;;;17.44;59.84
40992;BME280;29633;49.168;9.848;2023-05-24T08:20:28;97241.06;;;17.45;59.68
40992;BME280;29633;49.168;9.848;2023-05-24T08:22:53;97238.56;;;17.44;59.67
40992;BME280;29633;49.168;9.848;2023-05-24T08:25:19;97243.66;;;17.45;59.71
40992;BME280;29633;49.168;9.848;2023-05-24T08:27:45;97235.16;;;17.43;59.98
40992;BME280;29633;49.168;9.848;2023-05-24T08:30:11;97240.41;;;17.43;59.69
40992;BME280;29633;49.168;9.848;2023-05-24T08:32:38;97238.56;;;17.44;59.67
40992;BME280;29633;49.168;9.848;2023-05-24T08:35:04;97243.66;;;17.45;59.62
40992;BME280;29633;49.168;9.848;2023-05-24T08:37:32;97240.91;;;17.47;59.66
40992;BME280;29633;49.168;9.848;2023-05-24T08:39:58;97250.25;;;17.49;59.78
40992;BME280;29633;49.168;9.848;2023-05-24T08:42:24;97245.00;;;17.49;59.71
40992;BME280;29633;49.168;9.848;2023-05-24T08:45:10;97240.75;;;17.48;59.73
40992;BME280;29633;49.168;9.848;2023-05-24T08:47:36;97231.72;;;17.51;59.60
40992;BME280;29633;49.168;9.848;2023-05-24T08:50:03;97236.19;;;17.50;59.64
40992;BME280;29633;49.168;9.848;2023-05-24T08:52:29;97251.91;;;17.50;59.74
40992;BME280;29633;49.168;9.848;2023-05-24T08:54:57;97245.66;;;17.51;59.74
40992;BME280;29633;49.168;9.848;2023-05-24T08:57:23;97250.25;;;17.49;59.64
40992;BME280;29633;49.168;9.848;2023-05-24T08:59:50;97251.84;;;17.42;59.96
40992;BME280;29633;49.168;9.848;2023-05-24T09:02:17;97258.06;;;17.41;59.74
40992;BME280;29633;49.168;9.848;2023-05-24T09:04:43;97247.88;;;17.38;59.86
40992;BME280;29633;49.168;9.848;2023-05-24T09:07:11;97252.31;;;17.38;59.88
40992;BME280;29633;49.168;9.848;2023-05-24T09:09:39;97254.78;;;17.39;59.98
40992;BME280;29633;49.168;9.848;2023-05-24T09:12:09;97255.09;;;17.36;59.80
40992;BME280;29633;49.168;9.848;2023-05-24T09:14:35;97263.31;;;17.41;59.90
40992;BME280;29633;49.168;9.848;2023-05-24T09:17:01;97258.88;;;17.42;59.79
40992;BME280;29633;49.168;9.848;2023-05-24T09:19:27;97273.34;;;17.46;59.58
40992;BME280;29633;49.168;9.848;2023-05-24T09:21:53;97263.81;;;17.45;59.71
40992;BME280;29633;49.168;9.848;2023-05-24T09:24:22;97261.38;;;17.43;59.94
40992;BME280;29633;49.168;9.848;2023-05-24T09:26:48;97267.13;;;17.47;59.75
40992;BME280;29633;49.168;9.848;2023-05-24T09:29:15;97261.06;;;17.46;59.71
40992;BME280;29633;49.168;9.848;2023-05-24T09:31:41;97262.69;;;17.47;60.03
40992;BME280;29633;49.168;9.848;2023-05-24T09:34:13;97267.06;;;17.39;59.92
40992;BME280;29633;49.168;9.848;2023-05-24T09:36:40;97268.84;;;17.38;59.93
40992;BME280;29633;49.168;9.848;2023-05-24T09:39:08;97272.25;;;17.31;60.15
40992;BME280;29633;49.168;9.848;2023-05-24T09:41:36;97267.81;;;17.31;60.15
40992;BME280;29633;49.168;9.848;2023-05-24T09:44:03;97269.47;;;17.32;60.05
40992;BME280;29633;49.168;9.848;2023-05-24T09:46:29;97269.75;;;17.29;60.30
40992;BME280;29633;49.168;9.848;2023-05-24T09:48:59;97268.13;;;17.28;60.31
40992;BME280;29633;49.168;9.848;2023-05-24T09:51:25;97273.38;;;17.28;60.16
40992;BME280;29633;49.168;9.848;2023-05-24T09:53:52;97267.00;;;17.31;60.07
40992;BME280;29633;49.168;9.848;2023-05-24T09:56:21;97270.00;;;17.36;60.03
40992;BME280;29633;49.168;9.848;2023-05-24T09:58:48;97269.16;;;17.35;59.94
40992;BME280;29633;49.168;9.848;2023-05-24T10:01:14;97263.09;;;17.35;59.80
40992;BME280;29633;49.168;9.848;2023-05-24T10:03:55;97263.47;;;17.40;59.96
40992;BME280;29633;49.168;9.848;2023-05-24T10:06:21;97264.00;;;17.43;60.12
40992;BME280;29633;49.168;9.848;2023-05-24T10:08:49;97270.25;;;17.50;59.99
40992;BME280;29633;49.168;9.848;2023-05-24T10:11:15;97261.25;;;17.53;59.95
40992;BME280;29633;49.168;9.848;2023-05-24T10:13:40;97268.38;;;17.60;59.63
40992;BME280;29633;49.168;9.848;2023-05-24T10:16:06;97264.31;;;17.66;59.71
40992;BME280;29633;49.168;9.848;2023-05-24T10:18:33;97265.81;;;17.68;59.95
40992;BME280;29633;49.168;9.848;2023-05-24T10:20:59;97267.94;;;17.73;59.46
40992;BME280;29633;49.168;9.848;2023-05-24T10:23:29;97268.47;;;17.77;59.78
40992;BME280;29633;49.168;9.848;2023-05-24T10:25:59;97260.97;;;17.82;59.41
40992;BME280;29633;49.168;9.848;2023-05-24T10:28:28;97265.56;;;17.80;59.49
40992;BME280;29633;49.168;9.848;2023-05-24T10:31:13;97259.31;;;17.81;59.69
40992;BME280;29633;49.168;9.848;2023-05-24T10:33:41;97254.06;;;17.81;59.65
40992;BME280;29633;49.168;9.848;2023-05-24T10:36:10;97255.91;;;17.88;59.62
40992;BME280;29633;49.168;9.848;2023-05-24T10:38:37;97250.53;;;17.98;59.42
40992;BME280;29633;49.168;9.848;2023-05-24T10:41:07;97257.63;;;18.05;59.64
40992;BME280;29633;49.168;9.848;2023-05-24T10:43:36;97257.84;;;18.12;59.52
40992;BME280;29633;49.168;9.848;2023-05-24T10:46:03;97254.88;;;18.15;59.46
40992;BME280;29633;49.168;9.848;2023-05-24T10:48:32;97253.91;;;18.24;59.51
40992;BME280;29633;49.168;9.848;2023-05-24T10:51:26;97250.69;;;18.30;59.49
40992;BME280;29633;49.168;9.848;2023-05-24T10:53:47;97259.56;;;18.37;59.19
40992;BME280;29633;49.168;9.848;2023-05-24T10:56:13;97254.97;;;18.39;59.21
40992;BME280;29633;49.168;9.848;2023-05-24T11:01:28;97250.91;;;18.53;59.07
40992;BME280;29633;49.168;9.848;2023-05-24T11:04:10;97255.03;;;18.55;59.03
40992;BME280;29633;49.168;9.848;2023-05-24T11:06:53;97257.53;;;18.65;58.93
40992;BME280;29633;49.168;9.848;2023-05-24T11:09:20;97243.59;;;18.73;59.24
40992;BME280;29633;49.168;9.848;2023-05-24T11:11:48;97247.69;;;18.83;59.16
40992;BME280;29633;49.168;9.848;2023-05-24T11:14:19;97243.28;;;18.92;58.81
40992;BME280;29633;49.168;9.848;2023-05-24T11:16:45;97237.34;;;18.98;58.99
40992;BME280;29633;49.168;9.848;2023-05-24T11:19:13;97237.38;;;19.06;58.63
40992;BME280;29633;49.168;9.848;2023-05-24T11:21:51;97234.41;;;19.17;58.83
40992;BME280;29633;49.168;9.848;2023-05-24T11:24:18;97229.47;;;19.30;58.70
40992;BME280;29633;49.168;9.848;2023-05-24T11:26:44;97223.19;;;19.39;58.56
40992;BME280;29633;49.168;9.848;2023-05-24T11:29:14;97224.19;;;19.46;58.58
40992;BME280;29633;49.168;9.848;2023-05-24T11:31:48;97223.19;;;19.55;58.55
40992;BME280;29633;49.168;9.848;2023-05-24T11:34:16;97224.81;;;19.64;58.30
40992;BME280;29633;49.168;9.848;2023-05-24T11:36:42;97218.72;;;19.72;58.51
40992;BME280;29633;49.168;9.848;2023-05-24T11:39:08;97217.72;;;19.81;58.16
40992;BME280;29633;49.168;9.848;2023-05-24T11:41:36;97221.09;;;19.90;58.14
40992;BME280;29633;49.168;9.848;2023-05-24T11:44:02;97208.63;;;19.92;58.22
40992;BME280;29633;49.168;9.848;2023-05-24T11:46:28;97213.06;;;19.91;58.47
40992;BME280;29633;49.168;9.848;2023-05-24T11:48:55;97215.34;;;19.94;58.27
40992;BME280;29633;49.168;9.848;2023-05-24T11:51:25;97214.84;;;19.99;58.47
40992;BME280;29633;49.168;9.848;2023-05-24T11:53:51;97202.47;;;20.07;58.40
40992;BME280;29633;49.168;9.848;2023-05-24T11:56:16;97204.41;;;20.13;58.36
40992;BME280;29633;49.168;9.848;2023-05-24T11:58:49;97199.91;;;20.22;58.21
40992;BME280;29633;49.168;9.848;2023-05-24T12:01:27;97194.00;;;20.28;58.11
40992;BME280;29633;49.168;9.848;2023-05-24T12:03:53;97188.72;;;20.28;58.28
40992;BME280;29633;49.168;9.848;2023-05-24T12:06:22;97185.13;;;20.29;58.35
40992;BME280;29633;49.168;9.848;2023-05-24T12:08:48;97188.38;;;20.31;58.18
40992;BME280;29633;49.168;9.848;2023-05-24T12:11:15;97188.38;;;20.31;58.42
40992;BME280;29633;49.168;9.848;2023-05-24T12:13:40;97189.69;;;20.35;58.01
40992;BME280;29633;49.168;9.848;2023-05-24T12:16:06;97181.25;;;20.40;58.41
40992;BME280;29633;49.168;9.848;2023-05-24T12:18:32;97176.13;;;20.46;58.25
40992;BME280;29633;49.168;9.848;2023-05-24T12:20:58;97181.66;;;20.51;58.08
40992;BME280;29633;49.168;9.848;2023-05-24T12:23:25;97177.88;;;20.54;58.25
40992;BME280;29633;49.168;9.848;2023-05-24T12:25:59;97181.03;;;20.49;58.33
40992;BME280;29633;49.168;9.848;2023-05-24T12:28:25;97175.75;;;20.49;58.29
40992;BME280;29633;49.168;9.848;2023-05-24T12:30:51;97177.75;;;20.47;58.20
40992;BME280;29633;49.168;9.848;2023-05-24T12:33:20;97178.88;;;20.53;58.05
40992;BME280;29633;49.168;9.848;2023-05-24T12:35:47;97180.31;;;20.55;57.79
40992;BME280;29633;49.168;9.848;2023-05-24T12:38:12;97171.44;;;20.56;57.95
40992;BME280;29633;49.168;9.848;2023-05-24T12:40:42;97172.72;;;20.60;57.97
40992;BME280;29633;49.168;9.848;2023-05-24T12:43:08;97171.06;;;20.59;57.60
40992;BME280;29633;49.168;9.848;2023-05-24T12:45:35;97174.00;;;20.65;57.57
40992;BME280;29633;49.168;9.848;2023-05-24T12:48:01;97175.63;;;20.66;57.85
40992;BME280;29633;49.168;9.848;2023-05-24T12:50:29;97170.50;;;20.72;57.72
40992;BME280;29633;49.168;9.848;2023-05-24T12:52:56;97163.69;;;20.78;57.74
40992;BME280;29633;49.168;9.848;2023-05-24T12:55:23;97166.44;;;20.84;57.21
40992;BME280;29633;49.168;9.848;2023-05-24T12:57:50;97165.75;;;20.90;57.61
40992;BME280;29633;49.168;9.848;2023-05-24T13:00:24;97161.19;;;20.99;57.47
40992;BME280;29633;49.168;9.848;2023-05-24T13:02:54;97164.59;;;21.07;57.13
40992;BME280;29633;49.168;9.848;2023-05-24T13:05:23;97159.09;;;21.17;57.22
40992;BME280;29633;49.168;9.848;2023-05-24T13:07:50;97162.28;;;21.27;57.17
40992;BME280;29633;49.168;9.848;2023-05-24T13:10:16;97162.84;;;21.37;56.91
40992;BME280;29633;49.168;9.848;2023-05-24T13:12:42;97174.47;;;21.43;56.87
40992;BME280;29633;49.168;9.848;2023-05-24T13:15:08;97168.31;;;21.50;56.93
40992;BME280;29633;49.168;9.848;2023-05-24T13:17:34;97171.56;;;21.52;56.59
40992;BME280;29633;49.168;9.848;2023-05-24T13:20:02;97154.38;;;21.56;56.88
40992;BME280;29633;49.168;9.848;2023-05-24T13:22:35;97152.38;;;21.58;56.88
40992;BME280;29633;49.168;9.848;2023-05-24T13:25:02;97158.13;;;21.62;56.75
40992;BME280;29633;49.168;9.848;2023-05-24T13:27:28;97160.22;;;21.67;56.90